createdAt,value
2023-02-26T00:01:19.688Z,4.52
2023-02-26T00:08:21.364Z,4.57
2023-02-26T00:15:23.325Z,4.41
2023-02-26T00:22:25.220Z,4.63
2023-02-26T00:29:27.050Z,4.59
2023-02-26T00:36:52.819Z,4.42
2023-02-26T00:43:54.562Z,4.56
2023-02-26T00:51:00.144Z,4.59
2023-02-26T00:58:01.714Z,4.51
2023-02-26T01:05:05.085Z,4.55
2023-02-26T01:12:08.988Z,4.41
2023-02-26T01:19:49.526Z,4.51
2023-02-26T01:26:51.428Z,4.57
2023-02-26T01:33:58.919Z,4.61
2023-02-26T01:41:31.760Z,4.57
2023-02-26T01:48:51.676Z,4.64
2023-02-26T01:56:01.937Z,4.54
2023-02-26T02:03:03.660Z,4.58
2023-02-26T02:10:06.928Z,4.32
2023-02-26T02:17:27.171Z,4.48
2023-02-26T02:25:02.693Z,4.49
2023-02-26T02:32:11.880Z,4.68
2023-02-26T02:39:16.880Z,4.38
2023-02-26T02:46:24.749Z,4.48
2023-02-26T02:53:40.379Z,4.68
2023-02-26T03:00:48.159Z,4.68
2023-02-26T03:08:02.296Z,4.63
2023-02-26T03:15:04.274Z,4.58
2023-02-26T03:22:18.142Z,4.51
2023-02-26T03:29:55.599Z,4.47
2023-02-26T03:37:00.876Z,4.42
2023-02-26T03:44:35.633Z,4.68
2023-02-26T03:51:38.249Z,4.34
2023-02-26T03:58:59.750Z,4.47
2023-02-26T04:06:16.638Z,4.40
2023-02-26T04:13:18.549Z,4.63
2023-02-26T04:20:21.070Z,4.50
2023-02-26T04:27:22.750Z,4.41
2023-02-26T04:34:24.621Z,4.48
2023-02-26T04:41:27.353Z,4.51
2023-02-26T04:48:29.231Z,4.41
2023-02-26T04:55:30.981Z,4.28
2023-02-26T05:02:33.536Z,4.24
2023-02-26T05:09:35.446Z,4.26
2023-02-26T05:16:36.991Z,4.45
2023-02-26T05:23:38.559Z,4.54
2023-02-26T05:30:40.586Z,4.30
2023-02-26T05:37:42.344Z,4.56
2023-02-26T05:44:43.886Z,4.51
2023-02-26T05:51:45.466Z,4.54
2023-02-26T05:58:47.040Z,4.56
2023-02-26T06:05:48.562Z,4.57
2023-02-26T06:12:50.527Z,4.62
2023-02-26T06:19:52.141Z,4.76
2023-02-26T06:26:53.753Z,4.73
2023-02-26T06:33:55.307Z,4.61
2023-02-26T06:40:56.852Z,4.61
2023-02-26T06:47:58.485Z,4.68
2023-02-26T06:55:00.083Z,4.53
2023-02-26T07:02:01.762Z,4.39
2023-02-26T07:09:03.428Z,5.12
2023-02-26T07:16:07.171Z,5.26
2023-02-26T07:23:08.851Z,5.77
2023-02-26T07:30:11.104Z,6.19
2023-02-26T07:37:12.652Z,5.41
2023-02-26T07:44:14.170Z,5.90
2023-02-26T07:51:15.655Z,5.72
2023-02-26T07:58:17.608Z,6.24
2023-02-26T08:05:19.130Z,6.76
2023-02-26T08:12:20.670Z,6.97
2023-02-26T08:19:22.193Z,7.39
2023-02-26T08:26:24.253Z,7.70
2023-02-26T08:33:25.914Z,7.92
2023-02-26T08:40:28.504Z,8.44
2023-02-26T08:47:30.034Z,8.74
2023-02-26T08:54:32.134Z,9.08
2023-02-26T09:01:33.667Z,9.95
2023-02-26T09:08:35.319Z,10.44
2023-02-26T09:15:37.055Z,10.46
2023-02-26T09:22:38.694Z,10.90
2023-02-26T09:29:40.240Z,11.27
2023-02-26T09:36:43.681Z,10.81
2023-02-26T09:44:30.663Z,10.66
2023-02-26T09:51:32.286Z,10.14
2023-02-26T09:58:36.329Z,10.83
2023-02-26T10:05:46.320Z,12.18
2023-02-26T10:12:48.705Z,13.43
2023-02-26T10:19:54.270Z,12.17
2023-02-26T10:27:18.479Z,13.15
2023-02-26T10:34:36.417Z,14.55
2023-02-26T10:41:38.106Z,13.93
2023-02-26T10:48:42.529Z,14.30
2023-02-26T10:55:47.016Z,13.96
2023-02-26T11:02:51.856Z,13.76
2023-02-26T11:09:54.721Z,13.88
2023-02-26T11:16:57.593Z,12.68
2023-02-26T11:24:02.155Z,12.83
2023-02-26T11:31:08.056Z,12.39
2023-02-26T11:38:17.144Z,12.06
2023-02-26T11:45:19.470Z,11.86
2023-02-26T11:52:20.985Z,13.19
2023-02-26T11:59:24.184Z,13.31
2023-02-26T12:06:25.774Z,13.68
2023-02-26T12:13:49.239Z,16.01
2023-02-26T12:21:00.000Z,15.19
2023-02-26T12:28:39.333Z,16.32
2023-02-26T12:35:53.294Z,14.34
2023-02-26T12:43:07.944Z,13.63
2023-02-26T12:50:32.736Z,13.60
2023-02-26T12:57:37.443Z,12.82
2023-02-26T13:05:00.514Z,11.23
2023-02-26T13:12:20.429Z,11.22
2023-02-26T13:19:43.134Z,11.05
2023-02-26T13:26:44.914Z,10.66
2023-02-26T13:33:46.618Z,10.36
2023-02-26T13:40:56.926Z,10.45
2023-02-26T13:48:11.667Z,9.97
2023-02-26T13:55:41.741Z,10.17
2023-02-26T14:02:51.476Z,10.33
2023-02-26T14:10:00.976Z,9.69
2023-02-26T14:17:08.538Z,9.83
2023-02-26T14:24:10.084Z,10.07
2023-02-26T14:31:11.717Z,10.30
2023-02-26T14:38:30.704Z,10.09
2023-02-26T14:45:37.101Z,9.73
2023-02-26T14:53:15.832Z,9.96
2023-02-26T15:00:32.160Z,9.81
2023-02-26T15:08:13.014Z,9.32
2023-02-26T15:15:36.676Z,9.38
2023-02-26T15:22:52.226Z,9.53
2023-02-26T15:29:53.876Z,9.56
2023-02-26T15:36:58.139Z,8.85
2023-02-26T15:44:02.820Z,9.30
2023-02-26T15:51:06.629Z,8.92
2023-02-26T15:58:08.497Z,8.59
2023-02-26T16:05:13.240Z,8.59
2023-02-26T16:12:21.362Z,8.74
2023-02-26T16:19:33.779Z,8.56
2023-02-26T16:26:40.749Z,8.44
2023-02-26T16:33:43.030Z,8.37
2023-02-26T16:40:45.223Z,8.20
2023-02-26T16:47:49.472Z,8.14
2023-02-26T16:54:57.376Z,8.12
2023-02-26T17:02:18.441Z,7.97
2023-02-26T17:09:42.823Z,7.90
2023-02-26T17:16:44.978Z,7.73
2023-02-26T17:23:46.660Z,7.58
2023-02-26T17:30:48.388Z,7.67
2023-02-26T17:37:52.138Z,7.80
2023-02-26T17:44:55.362Z,7.66
2023-02-26T17:51:57.409Z,7.59
2023-02-26T17:58:59.722Z,7.49
2023-02-26T18:06:01.985Z,7.40
2023-02-26T18:13:04.162Z,7.34
2023-02-26T18:20:13.459Z,7.23
2023-02-26T18:27:16.667Z,7.02
2023-02-26T18:34:18.214Z,6.97
2023-02-26T18:41:19.957Z,6.80
2023-02-26T18:48:21.647Z,6.83
2023-02-26T18:55:23.288Z,6.68
2023-02-26T19:02:24.969Z,6.61
2023-02-26T19:09:28.711Z,6.45
2023-02-26T19:16:34.952Z,6.43
2023-02-26T19:23:36.566Z,6.31
2023-02-26T19:30:39.707Z,6.21
2023-02-26T19:37:41.431Z,6.13
2023-02-26T19:44:43.079Z,6.01
2023-02-26T19:51:45.069Z,5.90
2023-02-26T19:58:46.704Z,5.85
2023-02-26T20:05:48.293Z,5.83
2023-02-26T20:12:50.173Z,5.70
2023-02-26T20:19:51.797Z,5.56
2023-02-26T20:26:53.524Z,5.54
2023-02-26T20:33:55.499Z,5.47
2023-02-26T20:40:57.080Z,5.43
2023-02-26T20:47:58.710Z,5.38
2023-02-26T20:55:00.267Z,5.22
2023-02-26T21:02:02.034Z,5.13
2023-02-26T21:09:04.151Z,5.21
2023-02-26T21:16:05.897Z,5.13
2023-02-26T21:23:07.588Z,5.13
2023-02-26T21:30:10.147Z,5.09
2023-02-26T21:37:11.897Z,5.06
2023-02-26T21:44:13.417Z,5.05
2023-02-26T21:51:15.607Z,5.01
2023-02-26T21:58:17.222Z,4.94
2023-02-26T22:05:18.912Z,4.94
2023-02-26T22:12:20.600Z,4.87
2023-02-26T22:19:22.266Z,4.87
2023-02-26T22:26:24.275Z,4.86
2023-02-26T22:33:26.340Z,4.89
2023-02-26T22:40:27.938Z,4.90
2023-02-26T22:47:29.664Z,4.91
2023-02-26T22:54:32.059Z,4.88
2023-02-26T23:01:33.779Z,4.84
2023-02-26T23:08:35.472Z,4.82
2023-02-26T23:15:37.237Z,4.82
2023-02-26T23:22:38.976Z,4.81
2023-02-26T23:29:42.326Z,4.82
2023-02-26T23:36:43.880Z,4.71
2023-02-26T23:43:45.416Z,4.57
2023-02-26T23:50:50.144Z,4.59
2023-02-26T23:57:51.743Z,4.44
